Christopher Mitchell

Scout - Manchester City
14 Okt 2027
Donnerstag
Verarbeitung

Persönlichkeit

Anpassungsfähigkeit (1) Ehrgeiz (5) Kontroverse (11) Loyalität (9) Druck (19) Professionalität (1) Fairness (14) Temperament (8)

Profil

Trainerstil Demokratisch
Lizenz Kontinentale C
Entschlossenheit 17
Menschenführung 14
Motivation 13
Disziplin 15
Arbeitszufriedenheit
100%
Ermüdung
0%
Rolle Scout
Gehalt 121.8K p/W
Vertrag 14.03.2029

Leistung

Verhalten Gut
Trainingseffektivität
56%
Spielerentwicklung
40%
Verletzungsprävention
85%
Taktische Umsetzung
35%

Letzte Ereignisse

Nahm an einer Scouting-Besprechung teil 7T her
Nahm an einer Scouting-Besprechung teil 14T her
Nahm an einer Scouting-Besprechung teil 21T her
Nahm an einer Scouting-Besprechung teil 28T her
Nahm an einer Scouting-Besprechung teil 35T her
Nahm an einer Scouting-Besprechung teil 42T her
Nahm an einer Scouting-Besprechung teil 49T her
Nahm an einer Scouting-Besprechung teil 56T her

Aktuell beobachtet

54
Spieler Verein Status Fähigkeit Vertrauen Beobachtet Zuletzt beobachtet Letzte Stimme
Khéphren Thuram Aston Villa Aktiv 165 / 161 40% 4 27.07.2027 -
William Saliba Arsenal Aktiv 186 / 184 40% 3 27.07.2027 -
Levi Colwill Chelsea Aktiv 165 / 168 40% 1 27.07.2027 -
Pierre Kalulu Juventus Aktiv 155 / 155 40% 2 23.07.2027 -
Jakub Kiwior Everton Aktiv 158 / 156 40% 1 23.07.2027 -
Bruno Guimarães Arsenal Aktiv 175 / 167 40% 1 23.07.2027 -
Alexis Mac Allister Liverpool Aktiv 165 / 165 40% 8 22.07.2027 -
Gabriel Arsenal Aktiv 170 / 180 40% 2 22.07.2027 -
Wesley Fofana Chelsea Aktiv 167 / 170 40% 1 20.07.2027 -
Jurriën Timber Arsenal Aktiv 166 / 162 40% 1 20.07.2027 -
Kiernan Dewsbury-Hall Everton Verloren 149 / 144 72% 1 05.07.2027 Befürworten
Ryan Gravenberch Liverpool Aktiv 168 / 161 40% 5 28.06.2027 -
Alessandro Bastoni Inter Aktiv 171 / 161 40% 1 28.06.2027 -
Martín Zubimendi Arsenal Aktiv 161 / 158 40% 3 22.06.2027 -
Adrien Rabiot AC Milan Verloren 165 / 154 40% 1 14.06.2027 -
Jack Hinshelwood Brighton Aktiv 146 / 143 40% 2 02.06.2027 -
Ousmane Diomande Nottingham Forest Aktiv 157 / 156 40% 1 02.06.2027 -
Aaron Hickey Brentford Aktiv 147 / 145 40% 1 02.06.2027 -
Yankuba Minteh Brighton Verloren 152 / 147 72% 1 01.06.2027 -
Joško Gvardiol Napoli Aktiv 168 / 172 40% 8 31.05.2027 -
Hugo Ekitiké Liverpool Aktiv 168 / 156 40% 2 31.05.2027 -
Dejan Kulusevski Tottenham Aktiv 177 / 171 40% 18 30.05.2027 -
Kenan Yıldız Juventus Aktiv 157 / 171 40% 12 29.05.2027 -
Moisés Caicedo Chelsea Aktiv 175 / 177 40% 17 28.05.2027 -
Sandro Tonali Tottenham Aktiv 181 / 179 40% 14 28.05.2027 -
Rayan Bournemouth Aktiv 132 / 150 40% 7 27.05.2027 -
Francesco Pio Esposito Inter Aktiv 138 / 155 40% 3 27.05.2027 -
Leo Castledine Middlesbrough Aktiv 123 / 129 40% 2 26.05.2027 -
Assane Diao Lazio Aktiv 147 / 144 40% 6 25.05.2027 -
Matías Soulé AS Roma Aktiv 157 / 162 40% 4 25.05.2027 -
Ebere Eze Arsenal Aktiv 159 / 159 40% 1 25.05.2027 -
Nico González Newcastle United Aktiv 160 / 159 40% 5 23.05.2027 -
Xavi Simons Tottenham Aktiv 160 / 149 40% 5 23.05.2027 -
Jeremie Frimpong Liverpool Aktiv 167 / 159 40% 4 22.05.2027 -
Mohammed Kudus Tottenham Aktiv 164 / 159 40% 2 17.05.2027 -
Morgan Rogers Chelsea Aktiv 160 / 161 40% 2 16.05.2027 -
James Maddison Tottenham Aktiv 151 / 147 40% 4 15.05.2027 -
Gabriel Martinelli Brighton Aktiv 162 / 160 40% 15 11.05.2027 -
Kai Havertz Arsenal Aktiv 160 / 155 40% 3 08.05.2027 -
Declan Rice Arsenal Aktiv 186 / 188 40% 3 08.05.2027 -
Curtis Jones Inter Aktiv 162 / 160 40% 1 28.04.2027 -
Alexander Isak Liverpool Aktiv 184 / 178 40% 3 20.04.2027 -
Stefanos Tzimas Brighton Aktiv 131 / 137 40% 2 17.04.2027 -
Iliman N'Diaye Everton Aktiv 165 / 166 40% 2 14.04.2027 -
Miloš Kerkez Liverpool Aktiv 157 / 156 40% 2 10.04.2027 -
Francisco Conceição Juventus Aktiv 156 / 152 40% 3 07.04.2027 -
Sidiki Chérif Coventry City Aktiv 127 / 129 40% 1 07.04.2027 -
Will Lankshear Middlesbrough Aktiv 120 / 135 40% 1 05.04.2027 -
Reece James Chelsea Aktiv 174 / 166 40% 9 30.03.2027 -
Vinícius Júnior Arsenal Aktiv 172 / 169 40% 4 30.03.2027 -
Cody Gakpo Liverpool Aktiv 164 / 164 40% 1 30.03.2027 -
Bradley Barcola Liverpool Aktiv 167 / 153 40% 3 28.03.2027 -
Caleb Yirenkyi Coventry City Aktiv 123 / 145 40% 1 01.08.2026 -
El Hadji Malick Diouf Brentford Aktiv 138 / 147 40% 1 01.08.2026 -